Bogachiel, Washington
Current Conditions -  °F | °C
As of 1:53 AM on Thursday 23 Oct 2014 (Local Time) from KUIL Reporting Station
Broken Clouds Broken Clouds  
Wind Chill: 50°   Ceiling: 6000
Heat Index: 50°   Visibility: 7mi
Dew Point: 49°   Wind: 5mph
Humidity: 96%   Direction: 90°E
Pressure: 29.66"   Gusts: NA
Location:  47.9519°N, 124.29°W
Report Text: KUIL 230853Z AUTO 09004KT 7SM BKN060 10/09 A2966 RMK AO2 SLP042 T01000094 51014
Loading
Personal Weather Stations






























Interactive Weather Map
Tropical Storm Tracking
New forecast layout! Learn more

10-Day Weather Forecast

Advertisements
Track Severe Weather on mobile